Terminal Aerodrome Forecast
Issued by NWS Bismarck, ND

Home | Current Version | Previous Version | Graphics & Text | Print | Product List | Glossary On
Versions: 1 2 3 4 5 6 7 8 9 10 11 12 13 14 15 16 17 18
000
FTUS43 KBIS 190300 AAA
TAFISN
TAF AMD
KISN 190312Z 1903/1924 VRB04KT P6SM BKN120 BKN180
     FM190800 26008KT P6SM VCSH SCT080 BKN110
     FM191200 27010KT P6SM BKN140
     FM191600 28014G19KT P6SM SCT120
     FM192100 29016G24KT P6SM BKN060=

USA.gov is the U.S. government's official web portal to all federal, state and local government web resources and services.